Lancaster, NH

6:10 PM EDT on July 23, 2016 (GMT -0400)
Village Rt 102S | | Change Station

Elev 866 ft 44.57 °N, 71.57 °W | Updated 1 hour ago

Light Rain
Light Rain
63.9 °F
Feels Like 63.9 °F
N
1.1
Wind Variable Wind from West
Gusts 2.5 mph

Today
High -- | Low -- °F
--% Chance of Precip.
Yesterday
High -- | Low -- °F
Precip. -- in
Pressure 29.88 in
Visibility 10.0 miles
Clouds Few 8000 ft
Mostly Cloudy 11000 ft
Dew Point 61 °F
Humidity 89%
Rainfall 0.45 in
Snow Depth Not available.
5:23 AM 8:21 PM
Waning Gibbous, 82% visible
METAR KHIE 232152Z AUTO VRB03KT 10SM -RA FEW080 BKN110 18/16 A2988 RMK AO2 SLP116 P0007 T01780161
Pressure 29.88 in
Visibility 10.0 miles
Clouds Few 8000 ft
Mostly Cloudy 11000 ft
Dew Point 61 °F
Humidity 89%
Rainfall 0.45 in
Snow Depth Not available.
5:23 AM 8:21 PM
Waning Gibbous, 82% visible
METAR KHIE 232152Z AUTO VRB03KT 10SM -RA FEW080 BKN110 18/16 A2988 RMK AO2 SLP116 P0007 T01780161

10-Day Weather Forecast

Almanac

Astronomy

Jul. 23, 2016 Rise Set
Actual Time
Civil Twilight
Nautical Twilight
Astronomical Twilight
Moon
Length of Visible Light
Length of Day
Tomorrow will be .
, % of the Moon is Illuminated

Today's Extremes

State Highs State Lows

Community

WunderPhotos

Upload Photos

1,926,942 photos uploaded!

WunderBlog® & News

Nearby

Air Quality

  Air Quality AQ Index Pollutant
Not available.

Snow Depth

Station Depth Elevation

Earthquake Activity

City Distance Mag. Time & Date
Minimum magnitude displayed is 2.5.

Coastal Water Temperatures

Place Temperature

Stations

Nearby Weather Stations

Station Location Temp. Windchill Dew Point Humidity Wind Precip. Elev Updated Type
                   

Watches & Warnings

There are currently no watches in effect.